sensor_id;sensor_type;location;lat;lon;timestamp;P1;durP1;ratioP1;P2;durP2;ratioP2
66585;SDS011;53444;45.822;16.092;2023-03-01T00:00:13;27.27;;;14.30;;
66585;SDS011;53444;45.822;16.092;2023-03-01T00:02:40;29.85;;;15.07;;
66585;SDS011;53444;45.822;16.092;2023-03-01T00:05:07;31.23;;;14.75;;
66585;SDS011;53444;45.822;16.092;2023-03-01T00:07:34;30.10;;;14.70;;
66585;SDS011;53444;45.822;16.092;2023-03-01T00:10:01;31.75;;;15.07;;
66585;SDS011;53444;45.822;16.092;2023-03-01T00:12:27;29.48;;;15.32;;
66585;SDS011;53444;45.822;16.092;2023-03-01T00:14:55;36.00;;;16.05;;
66585;SDS011;53444;45.822;16.092;2023-03-01T00:17:22;31.25;;;16.20;;
66585;SDS011;53444;45.822;16.092;2023-03-01T00:19:49;31.23;;;15.17;;
66585;SDS011;53444;45.822;16.092;2023-03-01T00:22:15;26.63;;;13.90;;
66585;SDS011;53444;45.822;16.092;2023-03-01T00:24:42;30.20;;;14.43;;
66585;SDS011;53444;45.822;16.092;2023-03-01T00:27:09;27.95;;;14.45;;
66585;SDS011;53444;45.822;16.092;2023-03-01T00:29:35;26.15;;;13.13;;
66585;SDS011;53444;45.822;16.092;2023-03-01T00:32:04;26.00;;;13.17;;
66585;SDS011;53444;45.822;16.092;2023-03-01T00:34:31;28.25;;;14.13;;
66585;SDS011;53444;45.822;16.092;2023-03-01T00:36:58;34.65;;;15.18;;
66585;SDS011;53444;45.822;16.092;2023-03-01T00:39:30;32.25;;;14.70;;
66585;SDS011;53444;45.822;16.092;2023-03-01T00:41:57;31.27;;;14.63;;
66585;SDS011;53444;45.822;16.092;2023-03-01T00:44:24;27.07;;;13.77;;
66585;SDS011;53444;45.822;16.092;2023-03-01T00:46:50;27.35;;;14.30;;
66585;SDS011;53444;45.822;16.092;2023-03-01T00:49:18;33.10;;;15.85;;
66585;SDS011;53444;45.822;16.092;2023-03-01T00:51:45;30.45;;;14.35;;
66585;SDS011;53444;45.822;16.092;2023-03-01T00:54:12;29.40;;;13.77;;
66585;SDS011;53444;45.822;16.092;2023-03-01T00:56:38;27.47;;;12.67;;
66585;SDS011;53444;45.822;16.092;2023-03-01T00:59:05;26.20;;;12.60;;
66585;SDS011;53444;45.822;16.092;2023-03-01T01:01:32;25.92;;;13.30;;
66585;SDS011;53444;45.822;16.092;2023-03-01T01:03:59;28.48;;;14.45;;
66585;SDS011;53444;45.822;16.092;2023-03-01T01:06:29;27.77;;;13.75;;
66585;SDS011;53444;45.822;16.092;2023-03-01T01:08:57;26.17;;;13.10;;
66585;SDS011;53444;45.822;16.092;2023-03-01T01:11:25;27.95;;;13.18;;
66585;SDS011;53444;45.822;16.092;2023-03-01T01:13:54;24.52;;;13.88;;
66585;SDS011;53444;45.822;16.092;2023-03-01T01:16:22;27.52;;;13.63;;
66585;SDS011;53444;45.822;16.092;2023-03-01T01:18:50;23.10;;;12.52;;
66585;SDS011;53444;45.822;16.092;2023-03-01T01:21:18;26.03;;;14.13;;
66585;SDS011;53444;45.822;16.092;2023-03-01T01:23:48;28.02;;;13.20;;
66585;SDS011;53444;45.822;16.092;2023-03-01T01:26:16;28.05;;;13.07;;
66585;SDS011;53444;45.822;16.092;2023-03-01T01:28:44;23.95;;;12.00;;
66585;SDS011;53444;45.822;16.092;2023-03-01T01:31:11;28.00;;;13.07;;
66585;SDS011;53444;45.822;16.092;2023-03-01T01:33:38;24.33;;;11.80;;
66585;SDS011;53444;45.822;16.092;2023-03-01T01:36:05;26.88;;;12.43;;
66585;SDS011;53444;45.822;16.092;2023-03-01T01:38:33;23.88;;;12.18;;
66585;SDS011;53444;45.822;16.092;2023-03-01T01:41:01;24.10;;;10.98;;
66585;SDS011;53444;45.822;16.092;2023-03-01T01:43:30;23.13;;;11.45;;
66585;SDS011;53444;45.822;16.092;2023-03-01T01:45:59;21.17;;;10.83;;
66585;SDS011;53444;45.822;16.092;2023-03-01T01:48:29;23.90;;;11.32;;
66585;SDS011;53444;45.822;16.092;2023-03-01T01:51:05;21.42;;;10.45;;
66585;SDS011;53444;45.822;16.092;2023-03-01T01:53:36;22.52;;;11.23;;
66585;SDS011;53444;45.822;16.092;2023-03-01T01:56:06;22.50;;;11.07;;
66585;SDS011;53444;45.822;16.092;2023-03-01T01:58:35;22.00;;;10.33;;
66585;SDS011;53444;45.822;16.092;2023-03-01T02:01:03;19.33;;;9.45;;
66585;SDS011;53444;45.822;16.092;2023-03-01T02:03:31;24.75;;;10.45;;
66585;SDS011;53444;45.822;16.092;2023-03-01T02:06:03;23.75;;;9.93;;
66585;SDS011;53444;45.822;16.092;2023-03-01T02:08:34;21.40;;;9.98;;
66585;SDS011;53444;45.822;16.092;2023-03-01T02:11:03;21.07;;;9.77;;
66585;SDS011;53444;45.822;16.092;2023-03-01T02:13:32;22.42;;;10.85;;
66585;SDS011;53444;45.822;16.092;2023-03-01T02:16:02;20.73;;;10.32;;
66585;SDS011;53444;45.822;16.092;2023-03-01T02:18:30;21.13;;;10.48;;
66585;SDS011;53444;45.822;16.092;2023-03-01T02:21:01;21.40;;;10.05;;
66585;SDS011;53444;45.822;16.092;2023-03-01T02:23:38;21.50;;;10.87;;
66585;SDS011;53444;45.822;16.092;2023-03-01T02:26:07;18.33;;;8.88;;
66585;SDS011;53444;45.822;16.092;2023-03-01T02:28:40;22.42;;;9.55;;
66585;SDS011;53444;45.822;16.092;2023-03-01T02:31:09;20.63;;;9.15;;
66585;SDS011;53444;45.822;16.092;2023-03-01T02:33:54;19.20;;;9.82;;
66585;SDS011;53444;45.822;16.092;2023-03-01T02:36:22;18.17;;;9.13;;
66585;SDS011;53444;45.822;16.092;2023-03-01T02:38:52;18.42;;;8.57;;
66585;SDS011;53444;45.822;16.092;2023-03-01T02:41:22;17.70;;;8.95;;
66585;SDS011;53444;45.822;16.092;2023-03-01T02:43:52;17.23;;;9.75;;
66585;SDS011;53444;45.822;16.092;2023-03-01T02:46:20;20.13;;;9.30;;
66585;SDS011;53444;45.822;16.092;2023-03-01T02:48:48;18.50;;;8.50;;
66585;SDS011;53444;45.822;16.092;2023-03-01T02:51:22;19.20;;;9.85;;
66585;SDS011;53444;45.822;16.092;2023-03-01T02:54:06;18.77;;;9.02;;
66585;SDS011;53444;45.822;16.092;2023-03-01T02:56:39;17.95;;;8.95;;
66585;SDS011;53444;45.822;16.092;2023-03-01T02:59:08;18.90;;;9.43;;
66585;SDS011;53444;45.822;16.092;2023-03-01T03:01:35;21.03;;;9.73;;
66585;SDS011;53444;45.822;16.092;2023-03-01T03:04:07;22.48;;;9.23;;
66585;SDS011;53444;45.822;16.092;2023-03-01T03:06:36;23.30;;;10.68;;
66585;SDS011;53444;45.822;16.092;2023-03-01T03:09:03;20.30;;;9.77;;
66585;SDS011;53444;45.822;16.092;2023-03-01T03:11:30;19.42;;;9.02;;
66585;SDS011;53444;45.822;16.092;2023-03-01T03:13:57;19.53;;;9.33;;
66585;SDS011;53444;45.822;16.092;2023-03-01T03:16:25;21.90;;;9.98;;
66585;SDS011;53444;45.822;16.092;2023-03-01T03:18:52;21.20;;;9.82;;
66585;SDS011;53444;45.822;16.092;2023-03-01T03:21:18;25.23;;;10.05;;
66585;SDS011;53444;45.822;16.092;2023-03-01T03:23:45;19.15;;;10.18;;
66585;SDS011;53444;45.822;16.092;2023-03-01T03:26:12;24.33;;;10.13;;
66585;SDS011;53444;45.822;16.092;2023-03-01T03:28:40;25.65;;;10.25;;
66585;SDS011;53444;45.822;16.092;2023-03-01T03:31:07;20.45;;;10.00;;
66585;SDS011;53444;45.822;16.092;2023-03-01T03:33:35;20.88;;;10.07;;
66585;SDS011;53444;45.822;16.092;2023-03-01T03:36:02;24.63;;;11.27;;
66585;SDS011;53444;45.822;16.092;2023-03-01T03:38:29;28.03;;;11.63;;
66585;SDS011;53444;45.822;16.092;2023-03-01T03:40:59;23.10;;;10.90;;
66585;SDS011;53444;45.822;16.092;2023-03-01T03:43:27;24.98;;;11.43;;
66585;SDS011;53444;45.822;16.092;2023-03-01T03:45:55;23.30;;;10.70;;
66585;SDS011;53444;45.822;16.092;2023-03-01T03:48:23;24.30;;;10.93;;
66585;SDS011;53444;45.822;16.092;2023-03-01T03:50:52;17.60;;;8.57;;
66585;SDS011;53444;45.822;16.092;2023-03-01T03:53:20;21.25;;;10.45;;
66585;SDS011;53444;45.822;16.092;2023-03-01T03:55:47;22.73;;;10.52;;
66585;SDS011;53444;45.822;16.092;2023-03-01T03:58:17;22.23;;;9.70;;
66585;SDS011;53444;45.822;16.092;2023-03-01T04:00:44;22.90;;;10.43;;
66585;SDS011;53444;45.822;16.092;2023-03-01T04:03:14;24.33;;;10.87;;
66585;SDS011;53444;45.822;16.092;2023-03-01T04:05:42;24.30;;;11.13;;
66585;SDS011;53444;45.822;16.092;2023-03-01T04:08:10;24.65;;;10.32;;
66585;SDS011;53444;45.822;16.092;2023-03-01T04:10:38;30.40;;;10.18;;
66585;SDS011;53444;45.822;16.092;2023-03-01T04:13:06;24.52;;;10.77;;
66585;SDS011;53444;45.822;16.092;2023-03-01T04:15:35;23.73;;;10.47;;
66585;SDS011;53444;45.822;16.092;2023-03-01T04:18:02;21.58;;;9.95;;
66585;SDS011;53444;45.822;16.092;2023-03-01T04:20:30;24.05;;;9.40;;
66585;SDS011;53444;45.822;16.092;2023-03-01T04:23:05;21.48;;;9.90;;
66585;SDS011;53444;45.822;16.092;2023-03-01T04:25:40;18.50;;;9.25;;
66585;SDS011;53444;45.822;16.092;2023-03-01T04:28:08;20.70;;;9.23;;
66585;SDS011;53444;45.822;16.092;2023-03-01T04:30:35;21.60;;;9.95;;
66585;SDS011;53444;45.822;16.092;2023-03-01T04:33:03;20.02;;;9.57;;
66585;SDS011;53444;45.822;16.092;2023-03-01T04:35:31;25.17;;;10.52;;
66585;SDS011;53444;45.822;16.092;2023-03-01T04:37:59;20.90;;;9.70;;
66585;SDS011;53444;45.822;16.092;2023-03-01T04:40:31;24.63;;;9.90;;
66585;SDS011;53444;45.822;16.092;2023-03-01T04:43:09;25.23;;;10.27;;
66585;SDS011;53444;45.822;16.092;2023-03-01T04:45:36;24.40;;;10.35;;
66585;SDS011;53444;45.822;16.092;2023-03-01T04:48:06;21.30;;;10.10;;
66585;SDS011;53444;45.822;16.092;2023-03-01T04:50:39;21.13;;;10.13;;
66585;SDS011;53444;45.822;16.092;2023-03-01T04:53:05;23.97;;;9.97;;
66585;SDS011;53444;45.822;16.092;2023-03-01T04:55:33;20.65;;;10.13;;
66585;SDS011;53444;45.822;16.092;2023-03-01T04:57:59;26.45;;;9.73;;
66585;SDS011;53444;45.822;16.092;2023-03-01T05:00:28;21.95;;;9.63;;
66585;SDS011;53444;45.822;16.092;2023-03-01T05:02:55;22.50;;;10.25;;
66585;SDS011;53444;45.822;16.092;2023-03-01T05:05:25;21.53;;;10.07;;
66585;SDS011;53444;45.822;16.092;2023-03-01T05:07:54;23.77;;;10.32;;
66585;SDS011;53444;45.822;16.092;2023-03-01T05:10:22;17.27;;;9.65;;
66585;SDS011;53444;45.822;16.092;2023-03-01T05:12:50;20.27;;;9.20;;
66585;SDS011;53444;45.822;16.092;2023-03-01T05:15:18;19.52;;;9.18;;
66585;SDS011;53444;45.822;16.092;2023-03-01T05:17:58;20.70;;;9.30;;
66585;SDS011;53444;45.822;16.092;2023-03-01T05:20:26;20.80;;;9.40;;
66585;SDS011;53444;45.822;16.092;2023-03-01T05:22:57;19.25;;;9.77;;
66585;SDS011;53444;45.822;16.092;2023-03-01T05:25:30;19.30;;;8.82;;
66585;SDS011;53444;45.822;16.092;2023-03-01T05:28:05;19.25;;;9.07;;
66585;SDS011;53444;45.822;16.092;2023-03-01T05:30:33;18.30;;;9.53;;
66585;SDS011;53444;45.822;16.092;2023-03-01T05:33:01;20.05;;;8.93;;
66585;SDS011;53444;45.822;16.092;2023-03-01T05:35:28;24.60;;;10.50;;
66585;SDS011;53444;45.822;16.092;2023-03-01T05:37:58;21.92;;;12.00;;
66585;SDS011;53444;45.822;16.092;2023-03-01T05:40:27;25.77;;;12.57;;
66585;SDS011;53444;45.822;16.092;2023-03-01T05:42:55;28.47;;;12.27;;
66585;SDS011;53444;45.822;16.092;2023-03-01T05:45:26;22.65;;;11.88;;
66585;SDS011;53444;45.822;16.092;2023-03-01T05:47:57;22.90;;;12.13;;
66585;SDS011;53444;45.822;16.092;2023-03-01T05:50:28;22.42;;;11.00;;
66585;SDS011;53444;45.822;16.092;2023-03-01T05:52:58;20.33;;;10.25;;
66585;SDS011;53444;45.822;16.092;2023-03-01T05:55:27;19.00;;;9.93;;
66585;SDS011;53444;45.822;16.092;2023-03-01T05:57:54;19.23;;;9.75;;
66585;SDS011;53444;45.822;16.092;2023-03-01T06:00:21;16.92;;;9.07;;
66585;SDS011;53444;45.822;16.092;2023-03-01T06:02:48;19.20;;;9.77;;
66585;SDS011;53444;45.822;16.092;2023-03-01T06:05:17;22.38;;;9.45;;
66585;SDS011;53444;45.822;16.092;2023-03-01T06:07:45;22.43;;;10.57;;
66585;SDS011;53444;45.822;16.092;2023-03-01T06:10:13;25.75;;;9.75;;
66585;SDS011;53444;45.822;16.092;2023-03-01T06:12:41;22.65;;;10.70;;
66585;SDS011;53444;45.822;16.092;2023-03-01T06:15:10;20.65;;;10.13;;
66585;SDS011;53444;45.822;16.092;2023-03-01T06:17:53;21.33;;;10.38;;
66585;SDS011;53444;45.822;16.092;2023-03-01T06:20:27;19.80;;;9.23;;
66585;SDS011;53444;45.822;16.092;2023-03-01T06:23:00;21.17;;;9.48;;
66585;SDS011;53444;45.822;16.092;2023-03-01T06:25:35;22.00;;;10.13;;
66585;SDS011;53444;45.822;16.092;2023-03-01T06:28:12;22.48;;;10.65;;
66585;SDS011;53444;45.822;16.092;2023-03-01T06:30:40;20.60;;;11.00;;
66585;SDS011;53444;45.822;16.092;2023-03-01T06:33:19;20.27;;;10.10;;
66585;SDS011;53444;45.822;16.092;2023-03-01T06:35:49;23.42;;;10.98;;
66585;SDS011;53444;45.822;16.092;2023-03-01T06:38:17;23.58;;;10.65;;
66585;SDS011;53444;45.822;16.092;2023-03-01T06:40:44;23.88;;;10.77;;
66585;SDS011;53444;45.822;16.092;2023-03-01T06:43:21;22.02;;;10.93;;
66585;SDS011;53444;45.822;16.092;2023-03-01T06:45:50;22.97;;;10.10;;
66585;SDS011;53444;45.822;16.092;2023-03-01T06:48:25;19.00;;;9.65;;
66585;SDS011;53444;45.822;16.092;2023-03-01T06:51:08;27.27;;;11.27;;
66585;SDS011;53444;45.822;16.092;2023-03-01T06:53:38;23.15;;;10.65;;
66585;SDS011;53444;45.822;16.092;2023-03-01T06:56:15;22.30;;;10.85;;
66585;SDS011;53444;45.822;16.092;2023-03-01T06:58:46;27.97;;;12.33;;
66585;SDS011;53444;45.822;16.092;2023-03-01T07:01:20;28.13;;;12.43;;
66585;SDS011;53444;45.822;16.092;2023-03-01T07:03:47;26.83;;;12.55;;
66585;SDS011;53444;45.822;16.092;2023-03-01T07:06:14;28.23;;;11.77;;
66585;SDS011;53444;45.822;16.092;2023-03-01T07:08:45;25.05;;;12.07;;
66585;SDS011;53444;45.822;16.092;2023-03-01T07:11:12;21.77;;;10.43;;
66585;SDS011;53444;45.822;16.092;2023-03-01T07:13:42;23.77;;;10.70;;
66585;SDS011;53444;45.822;16.092;2023-03-01T07:16:09;25.58;;;11.30;;
66585;SDS011;53444;45.822;16.092;2023-03-01T07:18:36;27.08;;;11.90;;
66585;SDS011;53444;45.822;16.092;2023-03-01T07:21:03;25.02;;;11.48;;
66585;SDS011;53444;45.822;16.092;2023-03-01T07:23:31;21.73;;;10.07;;
66585;SDS011;53444;45.822;16.092;2023-03-01T07:26:00;22.60;;;10.13;;
66585;SDS011;53444;45.822;16.092;2023-03-01T07:28:31;19.30;;;9.80;;
66585;SDS011;53444;45.822;16.092;2023-03-01T07:31:39;21.58;;;9.80;;
66585;SDS011;53444;45.822;16.092;2023-03-01T07:33:57;20.58;;;10.38;;
66585;SDS011;53444;45.822;16.092;2023-03-01T07:36:24;22.97;;;10.03;;
66585;SDS011;53444;45.822;16.092;2023-03-01T07:38:51;19.17;;;9.50;;
66585;SDS011;53444;45.822;16.092;2023-03-01T07:41:23;19.08;;;10.30;;
66585;SDS011;53444;45.822;16.092;2023-03-01T07:43:50;24.50;;;10.20;;
66585;SDS011;53444;45.822;16.092;2023-03-01T07:46:17;24.15;;;10.52;;
66585;SDS011;53444;45.822;16.092;2023-03-01T07:48:47;19.23;;;9.47;;
66585;SDS011;53444;45.822;16.092;2023-03-01T07:51:17;20.17;;;10.07;;
66585;SDS011;53444;45.822;16.092;2023-03-01T07:53:46;21.83;;;9.55;;
66585;SDS011;53444;45.822;16.092;2023-03-01T07:56:16;23.08;;;10.15;;
66585;SDS011;53444;45.822;16.092;2023-03-01T07:58:45;23.75;;;10.40;;
66585;SDS011;53444;45.822;16.092;2023-03-01T08:01:12;21.53;;;10.17;;
66585;SDS011;53444;45.822;16.092;2023-03-01T08:03:41;19.48;;;9.48;;
66585;SDS011;53444;45.822;16.092;2023-03-01T08:06:08;20.67;;;10.02;;
66585;SDS011;53444;45.822;16.092;2023-03-01T08:08:36;18.73;;;9.10;;
66585;SDS011;53444;45.822;16.092;2023-03-01T08:11:04;21.25;;;9.18;;
66585;SDS011;53444;45.822;16.092;2023-03-01T08:13:39;20.17;;;9.50;;
66585;SDS011;53444;45.822;16.092;2023-03-01T08:16:09;17.85;;;9.02;;
66585;SDS011;53444;45.822;16.092;2023-03-01T08:18:37;19.60;;;9.90;;
66585;SDS011;53444;45.822;16.092;2023-03-01T08:21:05;20.80;;;10.10;;
66585;SDS011;53444;45.822;16.092;2023-03-01T08:23:33;18.63;;;9.93;;
66585;SDS011;53444;45.822;16.092;2023-03-01T08:26:04;20.07;;;9.60;;
66585;SDS011;53444;45.822;16.092;2023-03-01T08:28:33;20.00;;;9.00;;
66585;SDS011;53444;45.822;16.092;2023-03-01T08:31:23;16.50;;;8.95;;
66585;SDS011;53444;45.822;16.092;2023-03-01T08:33:54;19.48;;;9.75;;
66585;SDS011;53444;45.822;16.092;2023-03-01T08:36:26;18.40;;;8.95;;
66585;SDS011;53444;45.822;16.092;2023-03-01T08:38:54;17.73;;;9.37;;
66585;SDS011;53444;45.822;16.092;2023-03-01T08:41:25;21.38;;;9.65;;
66585;SDS011;53444;45.822;16.092;2023-03-01T08:43:55;16.25;;;8.35;;
66585;SDS011;53444;45.822;16.092;2023-03-01T08:46:25;17.33;;;7.95;;
66585;SDS011;53444;45.822;16.092;2023-03-01T08:48:52;13.38;;;7.38;;
66585;SDS011;53444;45.822;16.092;2023-03-01T08:51:19;17.60;;;8.70;;
66585;SDS011;53444;45.822;16.092;2023-03-01T08:53:47;18.67;;;8.80;;
66585;SDS011;53444;45.822;16.092;2023-03-01T08:56:15;17.02;;;8.60;;
66585;SDS011;53444;45.822;16.092;2023-03-01T08:58:43;15.50;;;8.43;;
66585;SDS011;53444;45.822;16.092;2023-03-01T09:01:11;13.88;;;7.95;;
66585;SDS011;53444;45.822;16.092;2023-03-01T09:03:41;16.70;;;7.93;;
66585;SDS011;53444;45.822;16.092;2023-03-01T09:06:08;16.50;;;8.68;;
66585;SDS011;53444;45.822;16.092;2023-03-01T09:08:35;18.50;;;8.82;;
66585;SDS011;53444;45.822;16.092;2023-03-01T09:11:02;21.17;;;9.27;;
66585;SDS011;53444;45.822;16.092;2023-03-01T09:13:29;19.33;;;9.55;;
66585;SDS011;53444;45.822;16.092;2023-03-01T09:15:57;17.13;;;8.90;;
66585;SDS011;53444;45.822;16.092;2023-03-01T09:18:24;18.48;;;9.70;;
66585;SDS011;53444;45.822;16.092;2023-03-01T09:20:52;20.02;;;9.60;;
66585;SDS011;53444;45.822;16.092;2023-03-01T09:23:20;18.23;;;9.88;;
66585;SDS011;53444;45.822;16.092;2023-03-01T09:25:50;16.40;;;8.65;;
66585;SDS011;53444;45.822;16.092;2023-03-01T09:28:18;16.73;;;8.23;;
66585;SDS011;53444;45.822;16.092;2023-03-01T09:30:45;17.00;;;8.73;;
66585;SDS011;53444;45.822;16.092;2023-03-01T09:33:11;18.80;;;9.40;;
66585;SDS011;53444;45.822;16.092;2023-03-01T09:35:39;19.65;;;9.95;;
66585;SDS011;53444;45.822;16.092;2023-03-01T09:38:12;18.08;;;9.65;;
66585;SDS011;53444;45.822;16.092;2023-03-01T09:40:41;18.43;;;8.13;;
66585;SDS011;53444;45.822;16.092;2023-03-01T09:43:13;15.70;;;7.85;;
66585;SDS011;53444;45.822;16.092;2023-03-01T09:45:45;15.88;;;9.13;;
66585;SDS011;53444;45.822;16.092;2023-03-01T09:48:16;16.90;;;8.75;;
66585;SDS011;53444;45.822;16.092;2023-03-01T09:50:47;16.30;;;8.40;;
66585;SDS011;53444;45.822;16.092;2023-03-01T09:53:16;19.77;;;8.77;;
66585;SDS011;53444;45.822;16.092;2023-03-01T09:55:44;16.13;;;8.48;;
66585;SDS011;53444;45.822;16.092;2023-03-01T10:01:16;19.80;;;9.07;;
66585;SDS011;53444;45.822;16.092;2023-03-01T10:04:03;18.33;;;9.50;;
66585;SDS011;53444;45.822;16.092;2023-03-01T10:06:52;15.53;;;7.77;;
66585;SDS011;53444;45.822;16.092;2023-03-01T10:09:25;18.73;;;8.75;;
66585;SDS011;53444;45.822;16.092;2023-03-01T10:11:55;18.92;;;8.70;;
66585;SDS011;53444;45.822;16.092;2023-03-01T10:14:27;16.85;;;8.38;;
66585;SDS011;53444;45.822;16.092;2023-03-01T10:17:00;16.52;;;8.98;;
66585;SDS011;53444;45.822;16.092;2023-03-01T10:19:30;16.03;;;8.00;;
66585;SDS011;53444;45.822;16.092;2023-03-01T10:22:03;17.58;;;8.52;;
66585;SDS011;53444;45.822;16.092;2023-03-01T10:24:37;21.02;;;8.95;;
66585;SDS011;53444;45.822;16.092;2023-03-01T10:27:05;16.88;;;7.95;;
66585;SDS011;53444;45.822;16.092;2023-03-01T10:29:39;17.45;;;7.97;;
66585;SDS011;53444;45.822;16.092;2023-03-01T10:32:10;20.47;;;9.47;;
66585;SDS011;53444;45.822;16.092;2023-03-01T10:34:37;17.52;;;9.02;;
66585;SDS011;53444;45.822;16.092;2023-03-01T10:37:08;18.10;;;9.15;;
66585;SDS011;53444;45.822;16.092;2023-03-01T10:39:55;15.82;;;8.40;;
66585;SDS011;53444;45.822;16.092;2023-03-01T10:42:31;19.60;;;8.88;;
66585;SDS011;53444;45.822;16.092;2023-03-01T10:45:14;19.07;;;9.13;;
66585;SDS011;53444;45.822;16.092;2023-03-01T10:47:42;16.70;;;8.57;;
66585;SDS011;53444;45.822;16.092;2023-03-01T10:50:17;17.80;;;10.00;;
66585;SDS011;53444;45.822;16.092;2023-03-01T10:52:55;16.90;;;9.23;;
66585;SDS011;53444;45.822;16.092;2023-03-01T10:55:26;16.58;;;9.95;;
66585;SDS011;53444;45.822;16.092;2023-03-01T10:58:05;17.40;;;9.43;;
66585;SDS011;53444;45.822;16.092;2023-03-01T11:00:34;16.30;;;8.13;;
66585;SDS011;53444;45.822;16.092;2023-03-01T11:03:13;19.40;;;8.90;;
66585;SDS011;53444;45.822;16.092;2023-03-01T11:08:31;16.67;;;8.80;;
66585;SDS011;53444;45.822;16.092;2023-03-01T11:13:57;17.00;;;9.38;;
66585;SDS011;53444;45.822;16.092;2023-03-01T11:16:27;19.77;;;9.88;;
66585;SDS011;53444;45.822;16.092;2023-03-01T11:18:58;19.10;;;9.98;;
66585;SDS011;53444;45.822;16.092;2023-03-01T11:21:26;18.70;;;9.05;;
66585;SDS011;53444;45.822;16.092;2023-03-01T11:23:57;17.37;;;10.13;;
66585;SDS011;53444;45.822;16.092;2023-03-01T11:26:28;19.23;;;9.98;;
66585;SDS011;53444;45.822;16.092;2023-03-01T11:29:02;21.23;;;10.57;;
66585;SDS011;53444;45.822;16.092;2023-03-01T11:31:33;20.88;;;10.10;;
66585;SDS011;53444;45.822;16.092;2023-03-01T11:34:02;21.95;;;10.75;;
66585;SDS011;53444;45.822;16.092;2023-03-01T11:36:35;30.80;;;10.30;;
66585;SDS011;53444;45.822;16.092;2023-03-01T11:39:12;40.15;;;14.45;;
66585;SDS011;53444;45.822;16.092;2023-03-01T11:41:46;27.98;;;12.52;;
66585;SDS011;53444;45.822;16.092;2023-03-01T11:44:19;24.52;;;10.30;;
66585;SDS011;53444;45.822;16.092;2023-03-01T11:46:58;20.98;;;11.40;;
66585;SDS011;53444;45.822;16.092;2023-03-01T11:52:39;20.02;;;10.93;;
66585;SDS011;53444;45.822;16.092;2023-03-01T11:55:20;34.97;;;14.90;;
66585;SDS011;53444;45.822;16.092;2023-03-01T11:58:11;21.25;;;10.20;;
66585;SDS011;53444;45.822;16.092;2023-03-01T12:00:57;18.63;;;9.23;;
66585;SDS011;53444;45.822;16.092;2023-03-01T12:03:36;13.87;;;7.40;;
66585;SDS011;53444;45.822;16.092;2023-03-01T12:06:23;18.35;;;8.35;;
66585;SDS011;53444;45.822;16.092;2023-03-01T12:09:03;17.08;;;8.27;;
66585;SDS011;53444;45.822;16.092;2023-03-01T12:11:42;18.73;;;9.30;;
66585;SDS011;53444;45.822;16.092;2023-03-01T12:17:25;16.97;;;8.43;;
66585;SDS011;53444;45.822;16.092;2023-03-01T12:23:00;14.98;;;7.18;;
66585;SDS011;53444;45.822;16.092;2023-03-01T12:25:52;14.63;;;7.85;;
66585;SDS011;53444;45.822;16.092;2023-03-01T12:28:34;14.57;;;8.05;;
66585;SDS011;53444;45.822;16.092;2023-03-01T12:31:20;13.43;;;7.30;;
66585;SDS011;53444;45.822;16.092;2023-03-01T12:34:11;14.55;;;7.43;;
66585;SDS011;53444;45.822;16.092;2023-03-01T12:36:51;14.27;;;7.47;;
66585;SDS011;53444;45.822;16.092;2023-03-01T12:39:41;16.23;;;7.97;;
66585;SDS011;53444;45.822;16.092;2023-03-01T12:42:29;20.05;;;8.98;;
66585;SDS011;53444;45.822;16.092;2023-03-01T12:45:21;19.87;;;10.40;;
66585;SDS011;53444;45.822;16.092;2023-03-01T12:48:18;19.13;;;9.18;;
66585;SDS011;53444;45.822;16.092;2023-03-01T12:50:57;18.52;;;9.25;;
66585;SDS011;53444;45.822;16.092;2023-03-01T12:53:29;20.40;;;9.45;;
66585;SDS011;53444;45.822;16.092;2023-03-01T12:55:58;28.88;;;13.10;;
66585;SDS011;53444;45.822;16.092;2023-03-01T12:58:28;26.33;;;14.73;;
66585;SDS011;53444;45.822;16.092;2023-03-01T13:01:03;23.33;;;12.40;;
66585;SDS011;53444;45.822;16.092;2023-03-01T13:03:47;19.80;;;10.27;;
66585;SDS011;53444;45.822;16.092;2023-03-01T13:06:29;23.90;;;12.48;;
66585;SDS011;53444;45.822;16.092;2023-03-01T13:09:04;18.95;;;9.82;;
66585;SDS011;53444;45.822;16.092;2023-03-01T13:11:40;16.37;;;8.37;;
66585;SDS011;53444;45.822;16.092;2023-03-01T13:17:03;15.82;;;7.80;;
66585;SDS011;53444;45.822;16.092;2023-03-01T13:19:31;14.38;;;7.55;;
66585;SDS011;53444;45.822;16.092;2023-03-01T13:22:01;15.18;;;7.95;;
66585;SDS011;53444;45.822;16.092;2023-03-01T13:27:45;17.38;;;8.77;;
66585;SDS011;53444;45.822;16.092;2023-03-01T13:33:41;16.48;;;8.10;;
66585;SDS011;53444;45.822;16.092;2023-03-01T13:36:11;13.90;;;7.30;;
66585;SDS011;53444;45.822;16.092;2023-03-01T13:39:28;13.30;;;7.33;;
66585;SDS011;53444;45.822;16.092;2023-03-01T13:41:58;13.45;;;7.50;;
66585;SDS011;53444;45.822;16.092;2023-03-01T13:44:29;14.68;;;7.75;;
66585;SDS011;53444;45.822;16.092;2023-03-01T13:46:59;13.80;;;7.22;;
66585;SDS011;53444;45.822;16.092;2023-03-01T13:49:43;13.10;;;7.60;;
66585;SDS011;53444;45.822;16.092;2023-03-01T13:52:28;12.03;;;6.33;;
66585;SDS011;53444;45.822;16.092;2023-03-01T13:55:13;15.13;;;7.55;;
66585;SDS011;53444;45.822;16.092;2023-03-01T13:57:45;15.50;;;7.60;;
66585;SDS011;53444;45.822;16.092;2023-03-01T14:00:29;12.70;;;7.07;;
66585;SDS011;53444;45.822;16.092;2023-03-01T14:03:03;14.93;;;7.90;;
66585;SDS011;53444;45.822;16.092;2023-03-01T14:05:32;15.30;;;7.90;;
66585;SDS011;53444;45.822;16.092;2023-03-01T14:08:02;16.98;;;8.70;;
66585;SDS011;53444;45.822;16.092;2023-03-01T14:10:31;17.48;;;8.88;;
66585;SDS011;53444;45.822;16.092;2023-03-01T14:13:17;16.08;;;8.00;;
66585;SDS011;53444;45.822;16.092;2023-03-01T14:16:00;16.95;;;7.93;;
66585;SDS011;53444;45.822;16.092;2023-03-01T14:18:39;14.93;;;7.53;;
66585;SDS011;53444;45.822;16.092;2023-03-01T14:21:17;13.13;;;7.40;;
66585;SDS011;53444;45.822;16.092;2023-03-01T14:23:45;17.33;;;9.32;;
66585;SDS011;53444;45.822;16.092;2023-03-01T14:26:12;14.70;;;7.40;;
66585;SDS011;53444;45.822;16.092;2023-03-01T14:28:42;12.40;;;6.75;;
66585;SDS011;53444;45.822;16.092;2023-03-01T14:34:01;12.43;;;6.32;;
66585;SDS011;53444;45.822;16.092;2023-03-01T14:36:29;15.20;;;7.32;;
66585;SDS011;53444;45.822;16.092;2023-03-01T14:38:58;10.85;;;6.25;;
66585;SDS011;53444;45.822;16.092;2023-03-01T14:41:31;12.60;;;6.85;;
66585;SDS011;53444;45.822;16.092;2023-03-01T14:44:01;15.40;;;8.63;;
66585;SDS011;53444;45.822;16.092;2023-03-01T14:46:32;15.40;;;8.30;;
66585;SDS011;53444;45.822;16.092;2023-03-01T14:49:02;12.23;;;6.82;;
66585;SDS011;53444;45.822;16.092;2023-03-01T14:51:30;11.05;;;6.30;;
66585;SDS011;53444;45.822;16.092;2023-03-01T14:54:04;11.52;;;6.25;;
66585;SDS011;53444;45.822;16.092;2023-03-01T14:56:43;11.27;;;6.30;;
66585;SDS011;53444;45.822;16.092;2023-03-01T14:59:11;9.48;;;6.10;;
66585;SDS011;53444;45.822;16.092;2023-03-01T15:01:39;12.40;;;7.20;;
66585;SDS011;53444;45.822;16.092;2023-03-01T15:04:08;11.68;;;6.55;;
66585;SDS011;53444;45.822;16.092;2023-03-01T15:06:38;12.35;;;6.47;;
66585;SDS011;53444;45.822;16.092;2023-03-01T15:09:10;11.87;;;5.77;;